createdAt,value
2018-08-21T00:00:16.797Z,72.2
2018-08-21T00:00:42.930Z,72.2
2018-08-21T00:01:09.071Z,72.2
2018-08-21T00:01:35.231Z,72.2
2018-08-21T00:02:01.360Z,72.1
2018-08-21T00:02:27.500Z,72.3
2018-08-21T00:02:53.641Z,71.72
2018-08-21T00:03:19.777Z,72.1
2018-08-21T00:03:45.936Z,72.1
2018-08-21T00:04:12.122Z,72
2018-08-21T00:04:38.306Z,72.1
2018-08-21T00:05:04.585Z,72.3
2018-08-21T00:05:30.715Z,72.2
2018-08-21T00:05:56.856Z,72.2
2018-08-21T00:06:23.011Z,72.1
2018-08-21T00:06:49.179Z,72.2
2018-08-21T00:07:15.311Z,72.2
2018-08-21T00:07:41.452Z,72.49
2018-08-21T00:08:07.592Z,72.39
2018-08-21T00:08:33.729Z,72.36
2018-08-21T00:08:59.879Z,72.3
2018-08-21T00:09:26.007Z,72.64
2018-08-21T00:09:52.165Z,72.78
2018-08-21T00:10:18.333Z,72.74
2018-08-21T00:10:44.501Z,72.55
2018-08-21T00:11:10.632Z,72.84
2018-08-21T00:11:36.774Z,72.36
2018-08-21T00:12:02.904Z,73.03
2018-08-21T00:12:29.040Z,73.13
2018-08-21T00:12:55.202Z,73.22
2018-08-21T00:13:21.341Z,73.03
2018-08-21T00:13:47.500Z,73.13
2018-08-21T00:14:13.660Z,73.22
2018-08-21T00:14:39.820Z,72.45
2018-08-21T00:15:05.955Z,72.94
2018-08-21T00:15:32.091Z,73.13
2018-08-21T00:15:58.226Z,73.22
2018-08-21T00:16:24.371Z,73.03
2018-08-21T00:16:50.510Z,73.22
2018-08-21T00:17:16.644Z,73.13
2018-08-21T00:17:42.789Z,73.03
2018-08-21T00:18:08.924Z,73.03
2018-08-21T00:18:35.064Z,73.03
2018-08-21T00:19:01.222Z,73.03
2018-08-21T00:19:27.359Z,73.03
2018-08-21T00:19:53.494Z,73.26
2018-08-21T00:20:19.632Z,73.03
2018-08-21T00:20:45.769Z,72.94
2018-08-21T00:21:11.930Z,73.22
2018-08-21T00:21:38.067Z,73.61
2018-08-21T00:22:04.233Z,73.61
2018-08-21T00:22:30.369Z,73.42
2018-08-21T00:22:56.551Z,73.61
2018-08-21T00:23:22.685Z,73.42
2018-08-21T00:23:48.823Z,73.71
2018-08-21T00:24:14.986Z,73.61
2018-08-21T00:24:41.122Z,73.42
2018-08-21T00:25:07.260Z,73.8
2018-08-21T00:25:33.397Z,73.8
2018-08-21T00:25:59.531Z,74
2018-08-21T00:26:25.669Z,74.1
2018-08-21T00:26:51.828Z,74.1
2018-08-21T00:27:17.958Z,74.19
2018-08-21T00:27:44.101Z,74
2018-08-21T00:28:10.251Z,73.9
2018-08-21T00:28:36.398Z,74.1
2018-08-21T00:29:02.535Z,74.38
2018-08-21T00:29:28.671Z,74.29
2018-08-21T00:29:54.806Z,74.48
2018-08-21T00:30:20.944Z,74.38
2018-08-21T00:30:47.080Z,74.29
2018-08-21T00:31:13.222Z,74.44
2018-08-21T00:31:39.410Z,74.68
2018-08-21T00:32:05.553Z,74.48
2018-08-21T00:32:31.711Z,74.44
2018-08-21T00:32:57.861Z,74.68
2018-08-21T00:33:24.006Z,74.25
2018-08-21T00:33:50.139Z,74.29
2018-08-21T00:34:16.276Z,74.48
2018-08-21T00:34:42.453Z,74.29
2018-08-21T00:35:08.597Z,74.48
2018-08-21T00:35:34.722Z,74.48
2018-08-21T00:36:00.858Z,74.35
2018-08-21T00:36:26.992Z,74.68
2018-08-21T00:36:53.128Z,74.87
2018-08-21T00:37:19.264Z,74.58
2018-08-21T00:37:45.405Z,74.48
2018-08-21T00:38:11.539Z,74.38
2018-08-21T00:38:37.696Z,74.29
2018-08-21T00:39:03.832Z,74.25
2018-08-21T00:39:29.974Z,74.96
2018-08-21T00:39:56.106Z,74.48
2018-08-21T00:40:22.261Z,74.77
2018-08-21T00:40:48.401Z,74.68
2018-08-21T00:41:14.544Z,74.96
2018-08-21T00:41:40.684Z,74.64
2018-08-21T00:42:06.842Z,75.02
2018-08-21T00:42:33.003Z,74.93
2018-08-21T00:42:59.130Z,74.96
2018-08-21T00:43:25.267Z,75.26
2018-08-21T00:43:51.410Z,74.64
2018-08-21T00:44:17.541Z,74.83
2018-08-21T00:44:43.677Z,74.96
2018-08-21T00:45:09.820Z,74.93
2018-08-21T00:45:35.976Z,74.68
2018-08-21T00:46:02.138Z,74.77
2018-08-21T00:46:28.266Z,75.02
2018-08-21T00:46:54.406Z,74.83
2018-08-21T00:47:20.541Z,74.83
2018-08-21T00:47:46.673Z,74.64
2018-08-21T00:48:12.804Z,74.64
2018-08-21T00:48:38.941Z,75.12
2018-08-21T00:49:05.079Z,74.83
2018-08-21T00:49:31.215Z,74.83
2018-08-21T00:49:57.359Z,74.93
2018-08-21T00:50:23.489Z,75.22
2018-08-21T00:50:49.625Z,75.7
2018-08-21T00:51:15.762Z,75.22
2018-08-21T00:51:41.899Z,75.31
2018-08-21T00:52:08.033Z,75.31
2018-08-21T00:52:34.169Z,75.6
2018-08-21T00:53:00.359Z,75.7
2018-08-21T00:53:26.519Z,75.51
2018-08-21T00:53:52.653Z,75.7
2018-08-21T00:54:18.796Z,75.41
2018-08-21T00:54:44.926Z,75.7
2018-08-21T00:55:11.066Z,75.31
2018-08-21T00:55:37.223Z,75.7
2018-08-21T00:56:03.362Z,76.09
2018-08-21T00:56:29.520Z,75.6
2018-08-21T00:56:55.679Z,75.99
2018-08-21T00:57:21.815Z,75.41
2018-08-21T00:57:47.945Z,75.89
2018-08-21T00:58:14.084Z,75.99
2018-08-21T00:58:40.252Z,75.79
2018-08-21T00:59:06.393Z,75.7
2018-08-21T00:59:32.522Z,75.79
2018-08-21T00:59:58.656Z,75.99
2018-08-21T01:00:24.810Z,75.79
2018-08-21T01:00:50.952Z,75.51
2018-08-21T01:01:17.090Z,75.89
2018-08-21T01:01:43.246Z,75.89
2018-08-21T01:02:09.389Z,75.89
2018-08-21T01:02:35.538Z,75.89
2018-08-21T01:03:01.682Z,75.99
2018-08-21T01:03:27.843Z,75.7
2018-08-21T01:03:53.980Z,75.79
2018-08-21T01:04:20.145Z,75.79
2018-08-21T01:04:46.282Z,75.6
2018-08-21T01:05:12.414Z,75.89
2018-08-21T01:05:38.546Z,75.89
2018-08-21T01:06:04.690Z,76.09
2018-08-21T01:06:30.833Z,75.89
2018-08-21T01:06:56.986Z,76.09
2018-08-21T01:07:23.115Z,76.18
2018-08-21T01:07:49.251Z,76.28
2018-08-21T01:08:15.387Z,75.99
2018-08-21T01:08:41.513Z,76.57
2018-08-21T01:09:07.649Z,75.89
2018-08-21T01:09:33.792Z,76.18
2018-08-21T01:09:59.948Z,76.28
2018-08-21T01:10:26.083Z,76.57
2018-08-21T01:10:52.224Z,75.99
2018-08-21T01:11:18.384Z,75.7
2018-08-21T01:11:44.543Z,75.99
2018-08-21T01:12:10.675Z,75.89
2018-08-21T01:12:36.816Z,75.89
2018-08-21T01:13:02.988Z,75.79
2018-08-21T01:13:29.118Z,76.24
2018-08-21T01:13:55.270Z,76.57
2018-08-21T01:14:21.409Z,76.05
2018-08-21T01:14:47.548Z,76.43
2018-08-21T01:15:13.690Z,76.43
2018-08-21T01:15:39.823Z,76.63
2018-08-21T01:16:05.957Z,76.53
2018-08-21T01:16:32.105Z,76.92
2018-08-21T01:16:58.293Z,76.63
2018-08-21T01:17:24.392Z,76.43
2018-08-21T01:17:50.551Z,76.92
2018-08-21T01:18:16.684Z,77.01
2018-08-21T01:18:42.824Z,76.92
2018-08-21T01:19:08.960Z,76.24
2018-08-21T01:19:35.117Z,76.34
2018-08-21T01:20:01.255Z,76.72
2018-08-21T01:20:27.394Z,77.4
2018-08-21T01:20:53.523Z,77.3
2018-08-21T01:21:19.698Z,77.4
2018-08-21T01:21:45.809Z,77.21
2018-08-21T01:22:11.944Z,77.11
2018-08-21T01:22:38.087Z,77.11
2018-08-21T01:23:04.226Z,77.11
2018-08-21T01:23:30.359Z,77.21
2018-08-21T01:23:56.487Z,77.4
2018-08-21T01:24:22.648Z,77.21
2018-08-21T01:24:48.786Z,77.4
2018-08-21T01:25:14.926Z,77.69
2018-08-21T01:25:41.056Z,77.5
2018-08-21T01:26:07.193Z,77.5
2018-08-21T01:26:33.329Z,77.5
2018-08-21T01:26:59.467Z,77.88
2018-08-21T01:27:25.629Z,78.08
2018-08-21T01:27:51.792Z,77.69
2018-08-21T01:28:17.932Z,77.5
2018-08-21T01:28:44.061Z,77.5
2018-08-21T01:29:10.199Z,78.17
2018-08-21T01:29:36.331Z,77.98
2018-08-21T01:30:02.474Z,78.08
2018-08-21T01:30:28.628Z,77.78
2018-08-21T01:30:54.768Z,78.17
2018-08-21T01:31:20.905Z,78.08
2018-08-21T01:31:47.069Z,78.27
2018-08-21T01:32:13.254Z,78.46
2018-08-21T01:32:39.387Z,78.36
2018-08-21T01:33:05.521Z,78.36
2018-08-21T01:33:31.686Z,78.66
2018-08-21T01:33:57.818Z,78.66
2018-08-21T01:34:23.954Z,78.46
2018-08-21T01:34:50.088Z,78.46
2018-08-21T01:35:16.218Z,78.46
2018-08-21T01:35:42.348Z,78.27
2018-08-21T01:36:08.505Z,78.66
2018-08-21T01:36:34.676Z,79.04
2018-08-21T01:37:00.802Z,79.19
2018-08-21T01:37:26.941Z,78.81
2018-08-21T01:37:53.101Z,78.85
2018-08-21T01:38:19.228Z,79.04
2018-08-21T01:38:45.389Z,79
2018-08-21T01:39:11.573Z,78.81
2018-08-21T01:39:37.712Z,78.91
2018-08-21T01:40:03.846Z,79.1
2018-08-21T01:40:29.982Z,79.19
2018-08-21T01:40:56.153Z,79.19
2018-08-21T01:41:22.260Z,79.1
2018-08-21T01:41:48.392Z,79
2018-08-21T01:42:14.532Z,79.19
2018-08-21T01:42:40.664Z,79
2018-08-21T01:43:06.796Z,79.29
2018-08-21T01:43:32.929Z,79.19
2018-08-21T01:43:59.101Z,79.19
2018-08-21T01:44:25.259Z,79.39
2018-08-21T01:44:51.395Z,79.19
2018-08-21T01:45:17.531Z,79.49
2018-08-21T01:45:43.673Z,79.77
2018-08-21T01:46:09.805Z,79.39
2018-08-21T01:46:35.933Z,79.49
2018-08-21T01:47:02.072Z,79.39
2018-08-21T01:47:28.256Z,79.49
2018-08-21T01:47:54.393Z,79.29
2018-08-21T01:48:20.528Z,79.58
2018-08-21T01:48:46.671Z,79.68
2018-08-21T01:49:12.823Z,80.16
2018-08-21T01:49:38.958Z,79.49
2018-08-21T01:50:05.117Z,79.29
2018-08-21T01:50:31.254Z,79.39
2018-08-21T01:50:57.390Z,79.49
2018-08-21T01:51:23.532Z,79.77
2018-08-21T01:51:49.671Z,79.87
2018-08-21T01:52:15.798Z,79.58
2018-08-21T01:52:41.938Z,79.58
2018-08-21T01:53:08.076Z,80.06
2018-08-21T01:53:34.214Z,79.87
2018-08-21T01:54:00.352Z,79.77
2018-08-21T01:54:26.515Z,79.68
2018-08-21T01:54:52.712Z,79.49
2018-08-21T01:55:18.839Z,79.29
2018-08-21T01:55:45.003Z,79.19
2018-08-21T01:56:11.136Z,79.49
2018-08-21T01:56:37.272Z,79.68
2018-08-21T01:57:03.405Z,79.68
2018-08-21T01:57:29.569Z,79.87
2018-08-21T01:57:55.700Z,79.87
2018-08-21T01:58:21.840Z,79.68
2018-08-21T01:58:47.972Z,79.68
2018-08-21T01:59:14.109Z,79.29
2018-08-21T01:59:40.252Z,79.19
2018-08-21T02:00:06.378Z,79.29
2018-08-21T02:00:32.519Z,79.77
2018-08-21T02:00:58.649Z,79.77
2018-08-21T02:01:24.782Z,79.68
2018-08-21T02:01:50.926Z,79.77
2018-08-21T02:02:17.069Z,79.58
2018-08-21T02:02:43.202Z,79.77
2018-08-21T02:03:09.341Z,79.77
2018-08-21T02:03:35.474Z,79.58
2018-08-21T02:04:01.606Z,79.49
2018-08-21T02:04:27.742Z,79.29
2018-08-21T02:04:53.889Z,79.19
2018-08-21T02:05:20.026Z,79.58
2018-08-21T02:05:46.191Z,79.64
2018-08-21T02:06:12.322Z,80.31
2018-08-21T02:06:38.461Z,80.31
2018-08-21T02:07:04.597Z,80.06
2018-08-21T02:07:30.734Z,79.93
2018-08-21T02:07:56.894Z,80.51
2018-08-21T02:08:23.035Z,80.54
2018-08-21T02:08:49.167Z,80.45
2018-08-21T02:09:15.361Z,80.51
2018-08-21T02:09:41.500Z,80.31
2018-08-21T02:10:07.652Z,80.31
2018-08-21T02:10:33.805Z,80.69
2018-08-21T02:10:59.981Z,80.6
2018-08-21T02:11:26.146Z,80.31
2018-08-21T02:11:52.306Z,80.02
2018-08-21T02:12:18.440Z,80.31
2018-08-21T02:12:44.575Z,80.31
2018-08-21T02:13:10.718Z,79.83
2018-08-21T02:13:36.849Z,80.02
2018-08-21T02:14:03.004Z,80.51
2018-08-21T02:14:29.164Z,80.51
2018-08-21T02:14:55.305Z,80.41
2018-08-21T02:15:21.453Z,80.51
2018-08-21T02:15:47.590Z,80.54
2018-08-21T02:16:13.725Z,80.51
2018-08-21T02:16:39.863Z,80.41
2018-08-21T02:17:06.005Z,80.02
2018-08-21T02:17:32.137Z,79.93
2018-08-21T02:17:58.278Z,80.22
2018-08-21T02:18:24.423Z,80.02
2018-08-21T02:18:50.562Z,80.22
2018-08-21T02:19:16.721Z,80.22
2018-08-21T02:19:42.855Z,80.12
2018-08-21T02:20:09.015Z,80.35
2018-08-21T02:20:35.152Z,80.6
2018-08-21T02:21:01.292Z,80.31
2018-08-21T02:21:27.427Z,80.45
2018-08-21T02:21:53.564Z,80.26
2018-08-21T02:22:19.699Z,80.45
2018-08-21T02:22:45.836Z,80.54
2018-08-21T02:23:11.976Z,80.64
2018-08-21T02:23:38.103Z,80.64
2018-08-21T02:24:04.265Z,80.54
2018-08-21T02:24:30.400Z,80.35
2018-08-21T02:24:56.538Z,80.26
2018-08-21T02:25:22.676Z,80.16
2018-08-21T02:25:48.861Z,80.35
2018-08-21T02:26:15.001Z,80.06
2018-08-21T02:26:41.158Z,80.06
2018-08-21T02:27:07.291Z,80.26
2018-08-21T02:27:33.424Z,80.26
2018-08-21T02:27:59.554Z,80.16
2018-08-21T02:28:25.685Z,80.16
2018-08-21T02:28:51.832Z,79.68
2018-08-21T02:29:18.007Z,79.97
2018-08-21T02:29:44.156Z,79.97
2018-08-21T02:30:10.342Z,80.06
2018-08-21T02:30:36.504Z,79.77
2018-08-21T02:31:02.642Z,80.06
2018-08-21T02:31:28.805Z,80.06
2018-08-21T02:31:54.960Z,80.26
2018-08-21T02:32:21.077Z,79.87
2018-08-21T02:32:47.235Z,79.49
2018-08-21T02:33:13.374Z,79.68
2018-08-21T02:33:39.512Z,80.26
2018-08-21T02:34:05.697Z,80.22
2018-08-21T02:34:31.906Z,80.06
2018-08-21T02:34:58.070Z,80.31
2018-08-21T02:35:24.205Z,80.02
2018-08-21T02:35:50.365Z,80.02
2018-08-21T02:36:16.529Z,80.12
2018-08-21T02:36:42.698Z,80.02
2018-08-21T02:37:08.867Z,80.31
2018-08-21T02:37:35.014Z,80.22
2018-08-21T02:38:01.167Z,80.02
2018-08-21T02:38:27.306Z,80.6
2018-08-21T02:38:53.441Z,80.41
2018-08-21T02:39:19.614Z,80.31
2018-08-21T02:39:45.771Z,80.6
2018-08-21T02:40:11.943Z,80.99
2018-08-21T02:40:38.078Z,80.89
2018-08-21T02:41:04.262Z,80.69
2018-08-21T02:41:30.392Z,80.99
2018-08-21T02:41:56.526Z,80.69
2018-08-21T02:42:22.681Z,81.18
2018-08-21T02:42:48.819Z,80.69
2018-08-21T02:43:14.973Z,81.18
2018-08-21T02:43:41.108Z,81.66
2018-08-21T02:44:07.247Z,81.37
2018-08-21T02:44:33.380Z,81.47
2018-08-21T02:44:59.514Z,81.57
2018-08-21T02:45:25.653Z,81.27
2018-08-21T02:45:51.838Z,81.57
2018-08-21T02:46:17.989Z,81.27
2018-08-21T02:46:44.123Z,81.27
2018-08-21T02:47:10.259Z,81.27
2018-08-21T02:47:36.407Z,81.37
2018-08-21T02:48:02.593Z,81.47
2018-08-21T02:48:28.750Z,81.09
2018-08-21T02:48:54.939Z,81.47
2018-08-21T02:49:21.086Z,81.27
2018-08-21T02:49:47.252Z,81.47
2018-08-21T02:50:13.410Z,81.66
2018-08-21T02:50:39.547Z,81.47
2018-08-21T02:51:05.685Z,80.99
2018-08-21T02:51:31.822Z,81.76
2018-08-21T02:51:57.978Z,81.72
2018-08-21T02:52:24.138Z,81.81
2018-08-21T02:52:50.282Z,82.1
2018-08-21T02:53:16.436Z,82.1
2018-08-21T02:53:42.578Z,81.72
2018-08-21T02:54:08.709Z,81.57
2018-08-21T02:54:34.857Z,81.91
2018-08-21T02:55:00.994Z,81.72
2018-08-21T02:55:27.123Z,82.1
2018-08-21T02:55:53.289Z,82.49
2018-08-21T02:56:19.449Z,82.01
2018-08-21T02:56:45.584Z,82.87
2018-08-21T02:57:11.724Z,82.78
2018-08-21T02:57:37.861Z,82.78
2018-08-21T02:58:03.995Z,82.59
2018-08-21T02:58:30.127Z,82.59
2018-08-21T02:58:56.293Z,82.2
2018-08-21T02:59:22.469Z,82.39
2018-08-21T02:59:48.628Z,82.78
2018-08-21T03:00:14.781Z,82.97
2018-08-21T03:00:40.944Z,83.16
2018-08-21T03:01:07.115Z,83.36
2018-08-21T03:01:33.278Z,83.07
2018-08-21T03:01:59.416Z,83.45
2018-08-21T03:02:25.589Z,83.16
2018-08-21T03:02:51.746Z,83.26
2018-08-21T03:03:17.895Z,83.16
2018-08-21T03:03:44.040Z,83.84
2018-08-21T03:04:10.207Z,83.84
2018-08-21T03:04:36.368Z,83.99
2018-08-21T03:05:02.525Z,84.03
2018-08-21T03:05:28.662Z,84.22
2018-08-21T03:05:54.792Z,84.18
2018-08-21T03:06:20.928Z,84.95
2018-08-21T03:06:47.068Z,84.95
2018-08-21T03:07:13.196Z,85.43
2018-08-21T03:07:39.333Z,85.14
2018-08-21T03:08:05.469Z,85.43
2018-08-21T03:08:31.610Z,85.63
2018-08-21T03:08:57.744Z,85.14
2018-08-21T03:09:23.886Z,85.05
2018-08-21T03:09:50.021Z,85.43
2018-08-21T03:10:16.151Z,85.34
2018-08-21T03:10:42.337Z,85.24
2018-08-21T03:11:08.474Z,85.14
2018-08-21T03:11:34.615Z,85.82
2018-08-21T03:12:00.773Z,85.43
2018-08-21T03:12:26.911Z,85.53
2018-08-21T03:12:53.071Z,85.72
2018-08-21T03:13:19.206Z,85.63
2018-08-21T03:13:45.340Z,85.43
2018-08-21T03:14:11.469Z,85.43
2018-08-21T03:14:37.603Z,85.34
2018-08-21T03:15:03.741Z,85.53
2018-08-21T03:15:29.896Z,85.34
2018-08-21T03:15:56.038Z,85.34
2018-08-21T03:16:22.175Z,86.01
2018-08-21T03:16:48.338Z,86.4
2018-08-21T03:17:14.477Z,86.21
2018-08-21T03:17:40.658Z,85.91
2018-08-21T03:18:06.791Z,85.34
2018-08-21T03:18:32.936Z,85.82
2018-08-21T03:18:59.087Z,85.34
2018-08-21T03:19:25.244Z,85.53
2018-08-21T03:19:51.383Z,85.91
2018-08-21T03:20:17.518Z,85.63
2018-08-21T03:20:43.682Z,85.53
2018-08-21T03:21:09.836Z,85.34
2018-08-21T03:21:35.994Z,85.53
2018-08-21T03:22:02.148Z,85.63
2018-08-21T03:22:28.318Z,85.34
2018-08-21T03:22:54.472Z,86.11
2018-08-21T03:23:20.627Z,85.91
2018-08-21T03:23:46.767Z,85.91
2018-08-21T03:24:12.933Z,85.82
2018-08-21T03:24:39.066Z,86.49
2018-08-21T03:25:05.198Z,86.16
2018-08-21T03:25:31.359Z,86.59
2018-08-21T03:25:57.495Z,86.65
2018-08-21T03:26:23.633Z,86.35
2018-08-21T03:26:49.803Z,87.22
2018-08-21T03:27:15.934Z,86.93
2018-08-21T03:27:42.071Z,86.83
2018-08-21T03:28:08.232Z,86.83
2018-08-21T03:28:34.394Z,86.49
2018-08-21T03:29:00.521Z,86.55
2018-08-21T03:29:26.667Z,86.74
2018-08-21T03:29:52.830Z,86.69
2018-08-21T03:30:18.966Z,86.4
2018-08-21T03:30:45.130Z,86.55
2018-08-21T03:31:11.279Z,86.93
2018-08-21T03:31:37.464Z,86.59
2018-08-21T03:32:03.605Z,86.35
2018-08-21T03:32:29.742Z,86.45
2018-08-21T03:32:55.870Z,86.65
2018-08-21T03:33:22.036Z,86.74
2018-08-21T03:33:48.172Z,86.65
2018-08-21T03:34:14.359Z,86.45
2018-08-21T03:34:40.491Z,86.35
2018-08-21T03:35:06.649Z,86.59
2018-08-21T03:35:32.782Z,86.55
2018-08-21T03:35:58.920Z,86.74
2018-08-21T03:36:25.050Z,86.93
2018-08-21T03:36:51.238Z,86.35
2018-08-21T03:37:17.372Z,86.78
2018-08-21T03:37:43.511Z,86.3
2018-08-21T03:38:09.645Z,86.3
2018-08-21T03:38:35.776Z,86.3
2018-08-21T03:39:01.936Z,86.59
2018-08-21T03:39:28.094Z,86.49
2018-08-21T03:39:54.233Z,86.69
2018-08-21T03:40:20.362Z,86.01
2018-08-21T03:40:46.496Z,86.01
2018-08-21T03:41:12.632Z,86.3
2018-08-21T03:41:38.774Z,86.21
2018-08-21T03:42:04.909Z,85.82
2018-08-21T03:42:31.054Z,86.11
2018-08-21T03:42:57.204Z,85.34
2018-08-21T03:43:23.342Z,85.34
2018-08-21T03:43:49.503Z,85.91
2018-08-21T03:44:15.635Z,85.91
2018-08-21T03:44:41.764Z,86.3
2018-08-21T03:45:07.908Z,86.4
2018-08-21T03:45:34.064Z,86.11
2018-08-21T03:46:00.201Z,85.97
2018-08-21T03:46:26.355Z,85.78
2018-08-21T03:46:52.545Z,86.49
2018-08-21T03:47:18.825Z,86.01
2018-08-21T03:47:44.867Z,86.11
2018-08-21T03:48:11.005Z,86.49
2018-08-21T03:48:37.168Z,86.69
2018-08-21T03:49:03.300Z,86.59
2018-08-21T03:49:29.468Z,86.4
2018-08-21T03:49:55.623Z,86.11
2018-08-21T03:50:21.763Z,86.01
2018-08-21T03:50:47.902Z,86.21
2018-08-21T03:51:14.060Z,85.91
2018-08-21T03:51:40.192Z,86.21
2018-08-21T03:52:06.323Z,86.01
2018-08-21T03:52:32.511Z,86.01
2018-08-21T03:52:58.686Z,85.34
2018-08-21T03:53:24.825Z,86.01
2018-08-21T03:53:50.968Z,86.01
2018-08-21T03:54:17.139Z,85.91
2018-08-21T03:54:43.325Z,86.01
2018-08-21T03:55:09.493Z,85.34
2018-08-21T03:55:35.644Z,85.91
2018-08-21T03:56:01.804Z,85.24
2018-08-21T03:56:27.932Z,85.34
2018-08-21T03:56:54.094Z,85.82
2018-08-21T03:57:20.234Z,85.43
2018-08-21T03:57:46.366Z,85.34
2018-08-21T03:58:12.502Z,85.63
2018-08-21T03:58:38.689Z,85.63
2018-08-21T03:59:04.828Z,85.53
2018-08-21T03:59:30.967Z,85.53
2018-08-21T03:59:57.120Z,85.53
2018-08-21T04:00:23.254Z,86.11
2018-08-21T04:00:49.418Z,86.01
2018-08-21T04:01:15.576Z,86.11
2018-08-21T04:01:41.716Z,85.34
2018-08-21T04:02:07.879Z,85.53
2018-08-21T04:02:34.020Z,85.43
2018-08-21T04:03:00.152Z,85.53
2018-08-21T04:03:26.286Z,85.43
2018-08-21T04:03:52.423Z,85.63
2018-08-21T04:04:18.566Z,85.43
2018-08-21T04:04:44.692Z,85.34
2018-08-21T04:05:10.946Z,85.43
2018-08-21T04:05:37.001Z,85.43
2018-08-21T04:06:03.137Z,85.63
2018-08-21T04:06:29.272Z,85.63
2018-08-21T04:06:55.450Z,85.63
2018-08-21T04:07:21.611Z,85.63
2018-08-21T04:07:47.754Z,85.53
2018-08-21T04:08:13.885Z,85.43
2018-08-21T04:08:40.027Z,85.53
2018-08-21T04:09:06.195Z,85.63
2018-08-21T04:09:32.379Z,85.63
2018-08-21T04:09:58.514Z,85.82
2018-08-21T04:10:24.653Z,85.72
2018-08-21T04:10:50.837Z,85.72
2018-08-21T04:11:16.971Z,85.39
2018-08-21T04:11:43.116Z,85.53
2018-08-21T04:12:09.274Z,85.49
2018-08-21T04:12:35.415Z,85.72
2018-08-21T04:13:01.550Z,85.39
2018-08-21T04:13:27.689Z,85.39
2018-08-21T04:13:53.853Z,85.43
2018-08-21T04:14:20.014Z,85.34
2018-08-21T04:14:46.171Z,85.14
2018-08-21T04:15:12.334Z,85.43
2018-08-21T04:15:38.471Z,85.63
2018-08-21T04:16:04.606Z,85.34
2018-08-21T04:16:30.763Z,85.24
2018-08-21T04:16:56.903Z,85.43
2018-08-21T04:17:23.052Z,84.95
2018-08-21T04:17:49.263Z,85.05
2018-08-21T04:18:15.401Z,85.14
2018-08-21T04:18:41.536Z,85.72
2018-08-21T04:19:07.709Z,85.63
2018-08-21T04:19:33.883Z,85.53
2018-08-21T04:20:00.045Z,85.43
2018-08-21T04:20:26.178Z,85.72
2018-08-21T04:20:52.305Z,85.34
2018-08-21T04:21:18.443Z,85.72
2018-08-21T04:21:44.576Z,85.63
2018-08-21T04:22:10.715Z,85.72
2018-08-21T04:22:36.849Z,85.34
2018-08-21T04:23:02.977Z,85.34
2018-08-21T04:23:29.141Z,85.63
2018-08-21T04:23:55.276Z,85.63
2018-08-21T04:24:21.444Z,85.82
2018-08-21T04:24:47.602Z,85.43
2018-08-21T04:25:13.762Z,85.58
2018-08-21T04:25:39.898Z,85.39
2018-08-21T04:26:06.049Z,85.39
2018-08-21T04:26:32.211Z,85.43
2018-08-21T04:26:58.350Z,85.39
2018-08-21T04:27:24.487Z,85.58
2018-08-21T04:27:50.677Z,85.58
2018-08-21T04:28:16.781Z,85.49
2018-08-21T04:28:42.933Z,85.49
2018-08-21T04:29:09.100Z,85.49
2018-08-21T04:29:35.239Z,85.39
2018-08-21T04:30:01.374Z,85.43
2018-08-21T04:30:27.504Z,86.07
2018-08-21T04:30:53.644Z,85.87
2018-08-21T04:31:19.804Z,86.07
2018-08-21T04:31:45.941Z,85.49
2018-08-21T04:32:12.081Z,85.53
2018-08-21T04:32:38.300Z,85.72
2018-08-21T04:33:04.382Z,85.53
2018-08-21T04:33:30.515Z,85.82
2018-08-21T04:33:56.650Z,85.58
2018-08-21T04:34:22.810Z,85.1
2018-08-21T04:34:48.945Z,85.49
2018-08-21T04:35:15.128Z,85.78
2018-08-21T04:35:41.295Z,85.82
2018-08-21T04:36:07.426Z,85.63
2018-08-21T04:36:33.566Z,85.34
2018-08-21T04:36:59.702Z,85.63
2018-08-21T04:37:25.837Z,85.63
2018-08-21T04:37:52.011Z,85.14
2018-08-21T04:38:18.161Z,85.24
2018-08-21T04:38:44.288Z,85.34
2018-08-21T04:39:10.430Z,85.34
2018-08-21T04:39:36.567Z,85.24
2018-08-21T04:40:02.732Z,85.34
2018-08-21T04:40:28.912Z,85.34
2018-08-21T04:40:55.069Z,85.14
2018-08-21T04:41:21.239Z,85.34
2018-08-21T04:41:47.400Z,85.24
2018-08-21T04:42:13.551Z,85.05
2018-08-21T04:42:39.689Z,84.76
2018-08-21T04:43:05.851Z,84.76
2018-08-21T04:43:31.985Z,84.66
2018-08-21T04:43:58.146Z,84.56
2018-08-21T04:44:24.283Z,84.28
2018-08-21T04:44:50.420Z,84.76
2018-08-21T04:45:16.573Z,84.95
2018-08-21T04:45:42.714Z,85.14
2018-08-21T04:46:08.898Z,85.14
2018-08-21T04:46:35.065Z,84.38
2018-08-21T04:47:01.202Z,84.66
2018-08-21T04:47:27.339Z,84.76
2018-08-21T04:47:53.488Z,84.95
2018-08-21T04:48:19.693Z,84.76
2018-08-21T04:48:45.830Z,84.76
2018-08-21T04:49:11.981Z,84.66
2018-08-21T04:49:38.143Z,84.47
2018-08-21T04:50:04.288Z,84.95
2018-08-21T04:50:30.439Z,84.66
2018-08-21T04:50:56.590Z,84.86
2018-08-21T04:51:22.750Z,84.76
2018-08-21T04:51:48.888Z,84.18
2018-08-21T04:52:15.030Z,84.09
2018-08-21T04:52:41.195Z,84.56
2018-08-21T04:53:07.328Z,84.18
2018-08-21T04:53:33.515Z,84.47
2018-08-21T04:53:59.649Z,84.47
2018-08-21T04:54:25.808Z,84.38
2018-08-21T04:54:51.941Z,84.09
2018-08-21T04:55:18.102Z,84.38
2018-08-21T04:55:44.237Z,84.18
2018-08-21T04:56:10.390Z,84.47
2018-08-21T04:56:36.536Z,84.38
2018-08-21T04:57:02.697Z,84.66
2018-08-21T04:57:28.833Z,84.66
2018-08-21T04:57:54.967Z,84.76
2018-08-21T04:58:21.136Z,84.12
2018-08-21T04:58:47.414Z,84.32
2018-08-21T04:59:13.464Z,84.38
2018-08-21T04:59:39.574Z,84.28
2018-08-21T05:00:05.707Z,84.61
2018-08-21T05:00:31.875Z,84.32
2018-08-21T05:00:58.036Z,84.32
2018-08-21T05:01:24.177Z,84.32
2018-08-21T05:01:50.337Z,84.56
2018-08-21T05:02:16.535Z,83.99
2018-08-21T05:02:42.676Z,84.56
2018-08-21T05:03:08.824Z,84.28
2018-08-21T05:03:35.006Z,84.42
2018-08-21T05:04:01.167Z,84.42
2018-08-21T05:04:27.319Z,84.32
2018-08-21T05:04:53.490Z,84.32
2018-08-21T05:05:19.649Z,84.22
2018-08-21T05:05:45.909Z,83.94
2018-08-21T05:06:11.990Z,84.22
2018-08-21T05:06:38.123Z,84.03
2018-08-21T05:07:04.260Z,84.32
2018-08-21T05:07:30.420Z,84.03
2018-08-21T05:07:56.550Z,84.42
2018-08-21T05:08:22.688Z,84.42
2018-08-21T05:08:48.846Z,83.84
2018-08-21T05:09:14.991Z,84.42
2018-08-21T05:09:41.118Z,84.12
2018-08-21T05:10:07.294Z,83.64
2018-08-21T05:10:33.456Z,83.74
2018-08-21T05:10:59.608Z,83.94
2018-08-21T05:11:25.787Z,83.45
2018-08-21T05:11:51.946Z,83.45
2018-08-21T05:12:18.087Z,83.45
2018-08-21T05:12:44.317Z,83.45
2018-08-21T05:13:10.446Z,83.45
2018-08-21T05:13:36.579Z,83.55
2018-08-21T05:14:02.713Z,83.45
2018-08-21T05:14:28.851Z,83.45
2018-08-21T05:14:55.004Z,83.26
2018-08-21T05:15:21.174Z,83.84
2018-08-21T05:15:47.312Z,83.84
2018-08-21T05:16:13.448Z,83.74
2018-08-21T05:16:39.595Z,83.26
2018-08-21T05:17:05.731Z,83.36
2018-08-21T05:17:31.873Z,83.45
2018-08-21T05:17:58.027Z,83.94
2018-08-21T05:18:24.197Z,83.74
2018-08-21T05:18:50.336Z,83.74
2018-08-21T05:19:16.471Z,83.74
2018-08-21T05:19:42.610Z,83.74
2018-08-21T05:20:08.770Z,83.74
2018-08-21T05:20:34.908Z,83.94
2018-08-21T05:21:01.074Z,83.74
2018-08-21T05:21:27.232Z,83.45
2018-08-21T05:21:53.405Z,83.36
2018-08-21T05:22:19.518Z,83.36
2018-08-21T05:22:45.652Z,83.74
2018-08-21T05:23:11.792Z,83.84
2018-08-21T05:23:37.942Z,83.55
2018-08-21T05:24:04.145Z,83.55
2018-08-21T05:24:30.305Z,83.45
2018-08-21T05:24:56.461Z,83.84
2018-08-21T05:25:22.600Z,83.74
2018-08-21T05:25:48.769Z,84.03
2018-08-21T05:26:14.905Z,83.84
2018-08-21T05:26:41.044Z,82.87
2018-08-21T05:27:07.205Z,82.87
2018-08-21T05:27:33.340Z,83.64
2018-08-21T05:27:59.473Z,83.84
2018-08-21T05:28:25.660Z,83.84
2018-08-21T05:28:51.779Z,82.97
2018-08-21T05:29:17.924Z,83.64
2018-08-21T05:29:44.055Z,83.84
2018-08-21T05:30:10.193Z,83.45
2018-08-21T05:30:36.357Z,83.55
2018-08-21T05:31:02.499Z,83.26
2018-08-21T05:31:28.660Z,82.97
2018-08-21T05:31:54.816Z,82.97
2018-08-21T05:32:20.947Z,83.07
2018-08-21T05:32:47.111Z,83.36
2018-08-21T05:33:13.254Z,83.36
2018-08-21T05:33:39.393Z,82.97
2018-08-21T05:34:05.533Z,83.45
2018-08-21T05:34:31.665Z,83.07
2018-08-21T05:34:57.797Z,83.36
2018-08-21T05:35:23.933Z,83.07
2018-08-21T05:35:50.068Z,83.07
2018-08-21T05:36:16.225Z,83.55
2018-08-21T05:36:42.363Z,83.36
2018-08-21T05:37:08.497Z,83.16
2018-08-21T05:37:34.656Z,82.97
2018-08-21T05:38:00.847Z,83.55